createdAt,value
2023-03-19T00:00:33.432Z,2.47
2023-03-19T00:03:00.598Z,5.17
2023-03-19T00:05:27.501Z,4.10
2023-03-19T00:07:54.193Z,3.00
2023-03-19T00:10:23.464Z,2.77
2023-03-19T00:12:50.115Z,3.03
2023-03-19T00:15:16.974Z,4.17
2023-03-19T00:17:43.792Z,3.27
2023-03-19T00:20:12.478Z,2.50
2023-03-19T00:22:41.984Z,2.30
2023-03-19T00:25:11.815Z,3.43
2023-03-19T00:27:41.011Z,5.07
2023-03-19T00:30:08.992Z,3.40
2023-03-19T00:32:36.701Z,4.90
2023-03-19T00:35:06.138Z,2.80
2023-03-19T00:37:35.578Z,6.10
2023-03-19T00:40:02.400Z,4.82
2023-03-19T00:42:31.947Z,3.87
2023-03-19T00:45:01.145Z,3.53
2023-03-19T00:47:30.107Z,5.60
2023-03-19T00:49:56.888Z,4.23
2023-03-19T00:52:28.487Z,5.67
2023-03-19T00:54:55.176Z,4.70
2023-03-19T00:57:24.138Z,4.50
2023-03-19T00:59:53.425Z,6.23
2023-03-19T01:02:22.325Z,5.97
2023-03-19T01:04:49.636Z,4.33
2023-03-19T01:07:16.459Z,4.77
2023-03-19T01:09:43.524Z,5.87
2023-03-19T01:12:10.739Z,4.60
2023-03-19T01:14:42.160Z,5.60
2023-03-19T01:17:11.395Z,4.57
2023-03-19T01:19:40.339Z,5.20
2023-03-19T01:22:07.629Z,4.90
2023-03-19T01:24:36.742Z,6.53
2023-03-19T01:27:05.975Z,7.83
2023-03-19T01:29:32.785Z,4.70
2023-03-19T01:31:59.475Z,3.90
2023-03-19T01:34:26.369Z,3.63
2023-03-19T01:36:53.078Z,3.97
2023-03-19T01:39:19.739Z,3.93
2023-03-19T01:41:48.947Z,4.90
2023-03-19T01:44:29.778Z,4.77
2023-03-19T01:46:58.620Z,5.20
2023-03-19T01:49:27.613Z,4.37
2023-03-19T01:51:56.120Z,4.53
2023-03-19T01:54:30.458Z,3.93
2023-03-19T01:57:11.395Z,4.80
2023-03-19T01:59:42.546Z,6.60
2023-03-19T02:02:20.248Z,3.70
2023-03-19T02:04:51.393Z,3.97
2023-03-19T02:07:20.381Z,4.40
2023-03-19T02:09:49.375Z,3.40
2023-03-19T02:12:18.629Z,3.87
2023-03-19T02:14:45.322Z,4.57
2023-03-19T02:17:12.271Z,3.50
2023-03-19T02:19:50.299Z,3.70
2023-03-19T02:22:23.772Z,4.07
2023-03-19T02:25:09.467Z,3.30
2023-03-19T02:27:41.407Z,3.27
2023-03-19T02:30:20.194Z,3.40
2023-03-19T02:32:49.284Z,4.57
2023-03-19T02:35:18.800Z,3.17
2023-03-19T02:37:45.583Z,4.18
2023-03-19T02:40:35.526Z,3.37
2023-03-19T02:43:04.323Z,3.43
2023-03-19T02:45:32.142Z,3.40
2023-03-19T02:48:00.015Z,4.13
2023-03-19T02:50:27.423Z,4.93
2023-03-19T02:52:58.839Z,3.53
2023-03-19T02:55:25.626Z,3.83
2023-03-19T02:57:52.331Z,3.53
2023-03-19T03:00:19.663Z,3.77
2023-03-19T03:02:46.783Z,3.57
2023-03-19T03:05:14.332Z,3.60
2023-03-19T03:07:44.932Z,3.80
2023-03-19T03:10:12.096Z,3.63
2023-03-19T03:12:41.554Z,3.57
2023-03-19T03:15:11.122Z,4.13
2023-03-19T03:17:45.410Z,3.40
2023-03-19T03:20:14.194Z,3.20
2023-03-19T03:22:42.128Z,3.60
2023-03-19T03:25:10.408Z,3.27
2023-03-19T03:27:39.401Z,3.17
2023-03-19T03:30:10.714Z,3.10
2023-03-19T03:32:38.587Z,4.17
2023-03-19T03:35:07.026Z,2.80
2023-03-19T03:37:41.485Z,3.43
2023-03-19T03:40:09.187Z,3.10
2023-03-19T03:42:39.291Z,4.03
2023-03-19T03:45:07.227Z,3.43
2023-03-19T03:47:33.931Z,3.37
2023-03-19T03:50:04.341Z,3.80
2023-03-19T03:52:33.674Z,2.97
2023-03-19T03:55:01.008Z,3.57
2023-03-19T03:57:27.690Z,3.33
2023-03-19T03:59:54.709Z,3.13
2023-03-19T04:02:22.232Z,3.83
2023-03-19T04:04:51.687Z,3.33
2023-03-19T04:07:20.926Z,2.80
2023-03-19T04:09:47.961Z,3.13
2023-03-19T04:12:18.348Z,2.63
2023-03-19T04:14:47.281Z,2.60
2023-03-19T04:17:13.948Z,3.63
2023-03-19T04:19:44.068Z,2.58
2023-03-19T04:22:10.898Z,2.60
2023-03-19T04:24:37.642Z,2.50
2023-03-19T04:27:04.612Z,3.30
2023-03-19T04:29:31.448Z,2.87
2023-03-19T04:32:00.904Z,4.63
2023-03-19T04:34:29.932Z,2.57
2023-03-19T04:36:57.209Z,3.40
2023-03-19T04:39:26.389Z,2.87
2023-03-19T04:41:53.045Z,2.30
2023-03-19T04:44:19.874Z,2.33
2023-03-19T04:46:48.710Z,3.77
2023-03-19T04:49:15.780Z,6.27
2023-03-19T04:51:47.153Z,2.77
2023-03-19T04:54:16.684Z,2.97
2023-03-19T04:56:48.118Z,3.93
2023-03-19T04:59:20.996Z,2.53
2023-03-19T05:01:51.779Z,2.70
2023-03-19T05:04:20.676Z,3.70
2023-03-19T05:06:50.247Z,3.17
2023-03-19T05:09:16.988Z,2.77
2023-03-19T05:11:43.647Z,2.30
2023-03-19T05:14:10.397Z,3.63
2023-03-19T05:16:37.128Z,4.47
2023-03-19T05:19:03.853Z,3.17
2023-03-19T05:21:30.592Z,4.87
2023-03-19T05:24:01.930Z,3.63
2023-03-19T05:26:28.609Z,4.23
2023-03-19T05:28:57.857Z,3.15
2023-03-19T05:31:27.963Z,2.63
2023-03-19T05:33:54.887Z,3.20
2023-03-19T05:36:21.733Z,3.13
2023-03-19T05:38:50.749Z,3.23
2023-03-19T05:41:17.880Z,2.70
2023-03-19T05:43:44.657Z,2.87
2023-03-19T05:46:11.500Z,2.80
2023-03-19T05:48:40.487Z,2.37
2023-03-19T05:51:07.385Z,2.70
2023-03-19T05:53:38.789Z,2.37
2023-03-19T05:56:07.693Z,4.10
2023-03-19T05:58:36.550Z,3.00
2023-03-19T06:01:06.970Z,2.40
2023-03-19T06:03:38.393Z,2.67
2023-03-19T06:06:05.643Z,2.40
2023-03-19T06:08:32.348Z,2.33
2023-03-19T06:10:59.152Z,3.63
2023-03-19T06:13:30.860Z,2.37
2023-03-19T06:15:57.563Z,2.37
2023-03-19T06:18:24.320Z,2.20
2023-03-19T06:20:53.674Z,2.43
2023-03-19T06:23:20.664Z,5.60
2023-03-19T06:25:49.605Z,3.07
2023-03-19T06:28:16.982Z,3.10
2023-03-19T06:30:44.431Z,2.87
2023-03-19T06:33:14.346Z,1.90
2023-03-19T06:35:43.363Z,2.33
2023-03-19T06:38:10.142Z,2.40
2023-03-19T06:40:39.356Z,2.33
2023-03-19T06:43:06.020Z,4.00
2023-03-19T06:45:35.177Z,4.27
2023-03-19T06:48:02.130Z,2.10
2023-03-19T06:50:28.787Z,2.40
2023-03-19T06:52:55.587Z,3.53
2023-03-19T06:55:22.637Z,4.67
2023-03-19T06:57:50.724Z,4.30
2023-03-19T07:00:20.753Z,2.73
2023-03-19T07:02:47.780Z,3.87
2023-03-19T07:05:14.514Z,2.40
2023-03-19T07:07:41.315Z,2.50
2023-03-19T07:10:10.756Z,2.72
2023-03-19T07:12:37.607Z,4.70
2023-03-19T07:15:04.840Z,4.10
2023-03-19T07:17:33.774Z,3.77
2023-03-19T07:20:03.240Z,3.80
2023-03-19T07:22:32.465Z,3.70
2023-03-19T07:25:01.422Z,3.37
2023-03-19T07:27:28.106Z,4.50
2023-03-19T07:29:55.667Z,5.10
2023-03-19T07:32:23.574Z,4.23
2023-03-19T07:34:50.624Z,4.90
2023-03-19T07:37:22.375Z,3.50
2023-03-19T07:39:52.156Z,3.23
2023-03-19T07:42:19.325Z,3.40
2023-03-19T07:44:46.005Z,5.05
2023-03-19T07:47:26.396Z,4.33
2023-03-19T07:49:57.698Z,3.70
2023-03-19T07:52:26.049Z,3.90
2023-03-19T07:54:53.133Z,4.47
2023-03-19T07:57:20.914Z,4.67
2023-03-19T07:59:47.689Z,4.77
2023-03-19T08:02:17.163Z,4.60
2023-03-19T08:04:44.126Z,4.50
2023-03-19T08:07:12.702Z,4.00
2023-03-19T08:09:40.158Z,3.30
2023-03-19T08:12:07.622Z,3.30
2023-03-19T08:14:39.947Z,3.47
2023-03-19T08:17:06.879Z,4.43
2023-03-19T08:19:35.793Z,4.23
2023-03-19T08:22:02.884Z,3.47
2023-03-19T08:24:32.061Z,3.87
2023-03-19T08:27:00.987Z,4.17
2023-03-19T08:29:27.964Z,4.27
2023-03-19T08:31:56.003Z,4.20
2023-03-19T08:34:23.519Z,4.10
2023-03-19T08:36:50.676Z,3.93
2023-03-19T08:39:24.545Z,5.50
2023-03-19T08:41:51.356Z,4.20
2023-03-19T08:44:20.972Z,5.83
2023-03-19T08:46:47.630Z,4.30
2023-03-19T08:49:14.278Z,4.13
2023-03-19T08:51:41.085Z,4.37
2023-03-19T08:54:13.869Z,4.93
2023-03-19T08:56:40.978Z,4.60
2023-03-19T08:59:07.866Z,4.37
2023-03-19T09:01:34.818Z,3.57
2023-03-19T09:04:02.180Z,3.53
2023-03-19T09:06:28.949Z,3.70
2023-03-19T09:08:56.751Z,3.67
2023-03-19T09:11:25.827Z,4.43
2023-03-19T09:13:55.389Z,3.47
2023-03-19T09:16:22.071Z,2.73
2023-03-19T09:18:48.938Z,2.93
2023-03-19T09:21:15.890Z,2.73
2023-03-19T09:23:44.982Z,3.60
2023-03-19T09:26:11.688Z,4.10
2023-03-19T09:28:41.168Z,3.47
2023-03-19T09:31:12.652Z,3.13
2023-03-19T09:33:39.412Z,2.53
2023-03-19T09:36:06.426Z,3.00
2023-03-19T09:38:35.458Z,2.43
2023-03-19T09:41:28.453Z,4.10
2023-03-19T09:44:11.035Z,2.13
2023-03-19T09:46:57.625Z,3.00
2023-03-19T09:49:28.259Z,3.03
2023-03-19T09:52:19.675Z,2.27
2023-03-19T09:54:54.569Z,1.60
2023-03-19T09:57:21.728Z,2.50
2023-03-19T09:59:53.204Z,1.60
2023-03-19T10:02:22.736Z,2.27
2023-03-19T10:05:07.783Z,2.00
2023-03-19T10:07:34.482Z,2.27
2023-03-19T10:10:25.833Z,1.80
2023-03-19T10:13:16.157Z,2.03
2023-03-19T10:15:44.778Z,1.73
2023-03-19T10:18:17.069Z,2.03
2023-03-19T10:21:02.967Z,1.60
2023-03-19T10:23:57.692Z,2.07
2023-03-19T10:26:34.443Z,2.10
2023-03-19T10:29:24.197Z,2.07
2023-03-19T10:32:05.923Z,2.40
2023-03-19T10:34:35.516Z,1.67
2023-03-19T10:37:05.157Z,1.80
2023-03-19T10:39:40.344Z,5.10
2023-03-19T10:42:33.406Z,2.40
2023-03-19T10:45:20.000Z,2.60
2023-03-19T10:47:49.408Z,3.50
2023-03-19T10:50:19.769Z,2.97
2023-03-19T10:52:51.886Z,3.83
2023-03-19T10:55:31.272Z,2.70
2023-03-19T10:58:16.906Z,2.70
2023-03-19T11:00:47.543Z,2.00
2023-03-19T11:03:34.599Z,3.53
2023-03-19T11:06:18.452Z,3.60
2023-03-19T11:08:59.012Z,2.00
2023-03-19T11:11:42.514Z,1.40
2023-03-19T11:14:21.918Z,2.93
2023-03-19T11:16:57.540Z,2.83
2023-03-19T11:19:30.816Z,4.87
2023-03-19T11:22:32.225Z,4.20
2023-03-19T11:25:19.969Z,1.40
2023-03-19T11:28:20.495Z,3.50
2023-03-19T11:31:11.485Z,1.50
2023-03-19T11:34:09.880Z,1.47
2023-03-19T11:36:55.080Z,2.40
2023-03-19T11:39:58.318Z,1.90
2023-03-19T11:42:38.643Z,2.63
2023-03-19T11:45:34.865Z,2.10
2023-03-19T11:48:26.060Z,2.30
2023-03-19T11:51:07.276Z,1.90
2023-03-19T11:54:09.945Z,2.20
2023-03-19T11:56:51.370Z,2.03
2023-03-19T11:59:45.281Z,2.27
2023-03-19T12:02:49.384Z,1.30
2023-03-19T12:05:16.199Z,3.97
2023-03-19T12:07:54.810Z,3.00
2023-03-19T12:10:41.734Z,2.60
2023-03-19T12:13:19.542Z,1.73
2023-03-19T12:15:58.290Z,2.67
2023-03-19T12:18:24.994Z,2.40
2023-03-19T12:21:23.764Z,2.63
2023-03-19T12:23:59.499Z,1.77
2023-03-19T12:26:32.191Z,1.85
2023-03-19T12:29:24.394Z,1.20
2023-03-19T12:32:06.323Z,3.70
2023-03-19T12:34:45.222Z,2.27
2023-03-19T12:37:31.017Z,1.97
2023-03-19T12:40:35.034Z,2.77
2023-03-19T12:43:10.543Z,1.47
2023-03-19T12:45:44.099Z,2.80
2023-03-19T12:48:19.605Z,3.07
2023-03-19T12:50:52.446Z,2.23
2023-03-19T12:53:51.692Z,4.17
2023-03-19T12:56:27.114Z,1.50
2023-03-19T12:58:59.848Z,2.57
2023-03-19T13:01:35.143Z,4.37
2023-03-19T13:04:41.682Z,1.40
2023-03-19T13:07:39.562Z,2.53
2023-03-19T13:10:17.676Z,1.83
2023-03-19T13:12:45.184Z,1.77
2023-03-19T13:15:40.300Z,1.63
2023-03-19T13:18:47.508Z,1.40
2023-03-19T13:21:34.450Z,1.40
2023-03-19T13:24:12.462Z,3.27
2023-03-19T13:26:39.669Z,1.87
2023-03-19T13:29:17.088Z,1.90
2023-03-19T13:31:44.236Z,2.20
2023-03-19T13:34:17.055Z,2.67
2023-03-19T13:36:51.621Z,1.47
2023-03-19T13:39:28.517Z,3.40
2023-03-19T13:42:11.050Z,1.70
2023-03-19T13:44:55.285Z,2.67
2023-03-19T13:47:36.204Z,0.97
2023-03-19T13:50:10.961Z,1.97
2023-03-19T13:52:43.745Z,1.40
2023-03-19T13:55:28.494Z,1.47
2023-03-19T13:58:12.724Z,1.73
2023-03-19T14:00:47.834Z,1.30
2023-03-19T14:03:35.321Z,1.93
2023-03-19T14:06:05.018Z,2.00
2023-03-19T14:08:51.747Z,1.40
2023-03-19T14:11:28.935Z,2.57
2023-03-19T14:13:56.718Z,1.30
2023-03-19T14:16:32.362Z,1.60
2023-03-19T14:19:05.892Z,2.13
2023-03-19T14:21:51.320Z,2.97
2023-03-19T14:27:33.210Z,1.20
2023-03-19T14:30:15.628Z,2.60
2023-03-19T14:32:43.174Z,2.20
2023-03-19T14:35:20.127Z,1.43
2023-03-19T14:37:52.504Z,2.53
2023-03-19T14:40:27.096Z,2.40
2023-03-19T14:43:08.025Z,1.80
2023-03-19T14:45:40.681Z,2.40
2023-03-19T14:48:18.037Z,1.47
2023-03-19T14:51:19.283Z,1.73
2023-03-19T14:53:53.199Z,1.08
2023-03-19T14:56:35.440Z,2.73
2023-03-19T14:59:05.983Z,2.50
2023-03-19T15:01:41.193Z,1.07
2023-03-19T15:04:14.390Z,1.10
2023-03-19T15:06:43.032Z,1.53
2023-03-19T15:09:23.236Z,2.63
2023-03-19T15:12:08.538Z,0.90
2023-03-19T15:14:56.267Z,1.43
2023-03-19T15:17:28.397Z,0.80
2023-03-19T15:19:58.372Z,0.97
2023-03-19T15:22:34.296Z,0.93
2023-03-19T15:25:14.506Z,1.07
2023-03-19T15:27:46.340Z,0.60
2023-03-19T15:30:26.630Z,0.73
2023-03-19T15:33:10.520Z,1.07
2023-03-19T15:35:44.199Z,2.30
2023-03-19T15:38:19.128Z,1.00
2023-03-19T15:40:46.072Z,1.20
2023-03-19T15:43:13.580Z,1.00
2023-03-19T15:45:44.958Z,1.40
2023-03-19T15:48:23.557Z,2.60
2023-03-19T15:50:56.049Z,3.40
2023-03-19T15:53:31.482Z,3.57
2023-03-19T15:56:01.959Z,4.67
2023-03-19T15:58:32.503Z,4.47
2023-03-19T16:01:03.879Z,3.80
2023-03-19T16:03:42.002Z,3.30
2023-03-19T16:06:38.751Z,3.80
2023-03-19T16:09:23.579Z,3.10
2023-03-19T16:11:51.747Z,2.60
2023-03-19T16:14:24.080Z,4.43
2023-03-19T16:17:11.323Z,3.13
2023-03-19T16:19:47.825Z,4.20
2023-03-19T16:22:25.553Z,3.33
2023-03-19T16:24:56.037Z,4.50
2023-03-19T16:27:35.016Z,6.13
2023-03-19T16:30:13.599Z,3.13
2023-03-19T16:32:42.826Z,4.07
2023-03-19T16:35:19.853Z,3.73
2023-03-19T16:37:53.171Z,4.20
2023-03-19T16:40:20.695Z,3.33
2023-03-19T16:42:52.559Z,2.77
2023-03-19T16:45:31.078Z,3.10
2023-03-19T16:48:05.017Z,2.67
2023-03-19T16:50:35.300Z,3.60
2023-03-19T16:53:06.298Z,3.20
2023-03-19T16:55:39.011Z,3.60
2023-03-19T16:58:10.943Z,3.47
2023-03-19T17:00:38.013Z,2.97
2023-03-19T17:03:10.184Z,4.23
2023-03-19T17:05:37.042Z,3.20
2023-03-19T17:08:09.127Z,5.07
2023-03-19T17:10:39.649Z,2.60
2023-03-19T17:13:28.178Z,2.77
2023-03-19T17:16:01.714Z,3.23
2023-03-19T17:18:31.963Z,3.15
2023-03-19T17:21:01.713Z,4.00
2023-03-19T17:23:30.325Z,3.57
2023-03-19T17:26:00.401Z,2.73
2023-03-19T17:28:31.981Z,4.63
2023-03-19T17:30:59.241Z,3.60
2023-03-19T17:33:30.458Z,3.00
2023-03-19T17:35:59.719Z,3.28
2023-03-19T17:38:35.021Z,3.00
2023-03-19T17:41:14.325Z,5.27
2023-03-19T17:43:43.425Z,4.40
2023-03-19T17:46:23.060Z,3.03
2023-03-19T17:48:51.241Z,3.55
2023-03-19T17:51:19.025Z,2.30
2023-03-19T17:53:53.085Z,3.13
2023-03-19T17:56:23.004Z,3.20
2023-03-19T17:58:50.510Z,2.40
2023-03-19T18:01:25.591Z,2.60
2023-03-19T18:03:55.596Z,2.63
2023-03-19T18:06:28.926Z,2.88
2023-03-19T18:08:58.173Z,3.40
2023-03-19T18:11:24.870Z,4.90
2023-03-19T18:13:52.446Z,3.10
2023-03-19T18:16:29.195Z,2.90
2023-03-19T18:19:01.396Z,3.27
2023-03-19T18:21:33.224Z,3.80
2023-03-19T18:24:01.377Z,3.60
2023-03-19T18:26:28.159Z,3.00
2023-03-19T18:28:57.196Z,2.40
2023-03-19T18:31:26.048Z,2.57
2023-03-19T18:33:56.431Z,2.50
2023-03-19T18:36:26.824Z,2.97
2023-03-19T18:38:58.099Z,2.33
2023-03-19T18:41:31.124Z,2.73
2023-03-19T18:44:00.402Z,3.70
2023-03-19T18:46:32.990Z,2.67
2023-03-19T18:49:02.508Z,2.10
2023-03-19T18:51:29.849Z,2.63
2023-03-19T18:53:57.131Z,2.27
2023-03-19T18:56:32.973Z,4.03
2023-03-19T18:59:06.037Z,1.70
2023-03-19T19:01:35.250Z,1.97
2023-03-19T19:04:02.101Z,2.33
2023-03-19T19:06:46.726Z,1.80
2023-03-19T19:09:18.744Z,1.87
2023-03-19T19:11:47.565Z,1.37
2023-03-19T19:14:21.729Z,1.33
2023-03-19T19:16:49.112Z,2.10
2023-03-19T19:19:24.153Z,1.30
2023-03-19T19:21:54.153Z,1.55
2023-03-19T19:24:21.655Z,1.37
2023-03-19T19:26:53.341Z,1.20
2023-03-19T19:29:26.322Z,1.70
2023-03-19T19:31:54.527Z,1.83
2023-03-19T19:34:22.286Z,1.67
2023-03-19T19:36:50.783Z,1.87
2023-03-19T19:39:17.915Z,2.63
2023-03-19T19:41:45.175Z,1.30
2023-03-19T19:44:19.003Z,1.27
2023-03-19T19:46:45.864Z,3.83
2023-03-19T19:49:18.557Z,1.13
2023-03-19T19:51:45.193Z,1.57
2023-03-19T19:54:16.616Z,1.43
2023-03-19T19:56:48.029Z,1.87
2023-03-19T19:59:15.777Z,1.50
2023-03-19T20:01:44.871Z,1.73
2023-03-19T20:04:21.241Z,1.30
2023-03-19T20:06:47.919Z,1.30
2023-03-19T20:09:17.264Z,1.40
2023-03-19T20:11:46.827Z,1.40
2023-03-19T20:14:13.761Z,1.30
2023-03-19T20:16:40.943Z,3.63
2023-03-19T20:19:16.615Z,1.60
2023-03-19T20:21:43.334Z,1.27
2023-03-19T20:24:10.035Z,1.30
2023-03-19T20:26:37.064Z,3.00
2023-03-19T20:29:07.708Z,2.23
2023-03-19T20:31:36.487Z,2.10
2023-03-19T20:34:03.702Z,1.50
2023-03-19T20:36:32.611Z,1.10
2023-03-19T20:38:59.250Z,1.50
2023-03-19T20:41:30.370Z,2.97
2023-03-19T20:43:59.294Z,2.37
2023-03-19T20:46:26.095Z,1.50
2023-03-19T20:48:52.752Z,0.87
2023-03-19T20:51:22.622Z,2.30
2023-03-19T20:53:52.664Z,1.20
2023-03-19T20:56:22.534Z,1.33
2023-03-19T20:58:49.398Z,1.13
2023-03-19T21:01:21.645Z,1.10
2023-03-19T21:03:48.425Z,1.27
2023-03-19T21:06:15.469Z,1.43
2023-03-19T21:08:47.641Z,1.10
2023-03-19T21:11:24.905Z,1.10
2023-03-19T21:13:52.866Z,0.93
2023-03-19T21:16:25.667Z,1.47
2023-03-19T21:18:54.940Z,1.13
2023-03-19T21:21:33.315Z,1.50
2023-03-19T21:24:07.901Z,1.20
2023-03-19T21:26:41.327Z,1.80
2023-03-19T21:29:21.445Z,1.20
2023-03-19T21:31:54.204Z,1.00
2023-03-19T21:34:20.962Z,1.10
2023-03-19T21:36:49.881Z,2.00
2023-03-19T21:39:17.549Z,1.20
2023-03-19T21:41:45.931Z,1.20
2023-03-19T21:44:15.946Z,1.20
2023-03-19T21:46:46.646Z,1.60
2023-03-19T21:49:14.051Z,1.10
2023-03-19T21:51:44.087Z,1.90
2023-03-19T21:54:15.653Z,1.73
2023-03-19T21:56:44.880Z,2.53
2023-03-19T21:59:18.667Z,1.40
2023-03-19T22:01:47.947Z,1.50
2023-03-19T22:04:14.788Z,1.40
2023-03-19T22:06:42.664Z,1.70
2023-03-19T22:09:14.097Z,2.47
2023-03-19T22:11:42.444Z,1.63
2023-03-19T22:14:17.853Z,1.40
2023-03-19T22:16:52.459Z,2.10
2023-03-19T22:19:19.461Z,2.40
2023-03-19T22:21:49.418Z,2.07
2023-03-19T22:24:16.105Z,2.83
2023-03-19T22:26:43.810Z,1.60
2023-03-19T22:29:23.582Z,1.40
2023-03-19T22:31:51.869Z,1.57
2023-03-19T22:34:21.542Z,1.92
2023-03-19T22:36:48.228Z,1.77
2023-03-19T22:39:15.312Z,1.87
2023-03-19T22:41:47.808Z,1.83
2023-03-19T22:44:27.649Z,3.03
2023-03-19T22:46:56.188Z,1.77
2023-03-19T22:49:24.630Z,1.87
2023-03-19T22:51:53.826Z,2.17
2023-03-19T22:54:22.638Z,1.40
2023-03-19T22:56:49.374Z,1.90
2023-03-19T22:59:21.560Z,2.10
2023-03-19T23:01:48.896Z,1.80
2023-03-19T23:04:27.018Z,2.10
2023-03-19T23:06:56.345Z,2.73
2023-03-19T23:09:25.897Z,1.80
2023-03-19T23:11:53.724Z,2.23
2023-03-19T23:14:30.678Z,1.80
2023-03-19T23:17:04.387Z,1.73
2023-03-19T23:19:36.618Z,3.13
2023-03-19T23:22:11.374Z,1.90
2023-03-19T23:24:38.714Z,2.20
2023-03-19T23:27:05.628Z,2.87
2023-03-19T23:29:36.097Z,1.73
2023-03-19T23:32:06.426Z,1.83
2023-03-19T23:34:39.859Z,1.73
2023-03-19T23:37:14.805Z,1.70
2023-03-19T23:39:43.628Z,3.10
2023-03-19T23:42:28.690Z,2.35
2023-03-19T23:45:01.286Z,2.10
2023-03-19T23:47:31.704Z,2.93
2023-03-19T23:50:01.103Z,2.13
2023-03-19T23:52:28.236Z,1.80
2023-03-19T23:54:54.966Z,1.73
2023-03-19T23:57:25.374Z,2.50
2023-03-19T23:59:52.424Z,1.67
